Time;durP1;ratioP1;P1;durP2;ratioP2;P2;SDS_P1;SDS_P2;PMS_P1;PMS_P2;Temp;Humidity;BMP_temperature;BMP_pressure;BME280_temperature;BME280_humidity;BME280_pressure;Samples;Min_cycle;Max_cycle;Signal;HPM_P1;HPM_P2
2022/07/30 00:00:15;;;;;;;;;;;;;;;;;;5114080;28;1035;-70
2022/07/30 00:02:40;;;;;;;;;;;;;;;;;;5112287;28;869;-69
2022/07/30 00:05:06;;;;;;;;;;;;;;;;;;5113600;28;962;-69
2022/07/30 00:07:32;;;;;;;;;;;;;;;;;;5113506;28;876;-69
2022/07/30 00:09:57;;;;;;;;;;;;;;;;;;5111223;28;1492;-69
2022/07/30 00:12:22;;;;;;;;;;;;;;;;;;5112342;28;1967;-69
2022/07/30 00:14:48;;;;;;;;;;;;;;;;;;5120047;28;959;-70
2022/07/30 00:17:13;;;;;;;;;;;;;;;;;;5120239;28;912;-70
2022/07/30 00:19:38;;;;;;;;;;;;;;;;;;5120107;28;955;-69
2022/07/30 00:22:03;;;;;;;;;;;;;;;;;;5120179;28;1014;-69
2022/07/30 00:24:29;;;;;;;;;;;;;;;;;;5120252;28;836;-69
2022/07/30 00:26:54;;;;;;;;;;;;;;;;;;5119169;28;903;-70
2022/07/30 00:29:19;;;;;;;;;;;;;;;;;;5100556;28;1159;-69
2022/07/30 00:31:45;;;;;;;;;;;;;;;;;;5118563;28;1944;-70
2022/07/30 00:34:11;;;;;;;;;;;;;;;;;;5119237;28;880;-69
2022/07/30 00:36:37;;;;;;;;;;;;;;;;;;5119009;27;918;-69
2022/07/30 00:39:02;;;;;;;;;;;;;;;;;;5117796;28;1003;-70
2022/07/30 00:41:27;;;;;;;;;;;;;;;;;;5118928;27;927;-70
2022/07/30 00:43:53;;;;;;;;;;;;;;;;;;5117286;28;894;-69
2022/07/30 00:46:19;;;;;;;;;;;;;;;;;;5117514;28;1297;-69
2022/07/30 00:48:44;;;;;;;;;;;;;;;;;;5118778;28;793;-70
2022/07/30 00:51:10;;;;;;;;;;;;;;;;;;5118846;27;1878;-70
2022/07/30 00:53:35;;;;;;;;;;;;;;;;;;5118591;28;915;-69
2022/07/30 00:56:01;;;;;;;;;;;;;;;;;;5118741;28;987;-69
2022/07/30 00:58:27;;;;;;;;;;;;;;;;;;5119074;27;844;-70
2022/07/30 01:00:52;;;;;;;;;;;;;;;;;;5118593;27;1077;-69
2022/07/30 01:03:18;;;;;;;;;;;;;;;;;;5117334;28;1138;-69
2022/07/30 01:05:44;;;;;;;;;;;;;;;;;;5119297;27;990;-69
2022/07/30 01:08:09;;;;;;;;;;;;;;;;;;5118895;27;852;-69
2022/07/30 01:10:34;;;;;;;;;;;;;;;;;;5117014;28;1906;-69
2022/07/30 01:13:00;;;;;;;;;;;;;;;;;;5117673;28;836;-69
2022/07/30 01:15:26;;;;;;;;;;;;;;;;;;5118963;27;845;-69
2022/07/30 01:17:54;;;;;;;;;;;;;;;;;;5117611;28;864;-69
2022/07/30 01:20:41;;;;;;;;;;;;;;;;;;5118913;27;892;-69
2022/07/30 01:23:30;;;;;;;;;;;;;;;;;;5117752;28;1247;-70
2022/07/30 01:25:56;;;;;;;;;;;;;;;;;;5106524;28;995;-70
2022/07/30 01:28:23;;;;;;;;;;;;;;;;;;5113501;28;1285;-70
2022/07/30 01:30:49;;;;;;;;;;;;;;;;;;5113444;28;1898;-70
2022/07/30 01:33:15;;;;;;;;;;;;;;;;;;5115319;28;789;-70
2022/07/30 01:35:43;;;;;;;;;;;;;;;;;;5115068;28;884;-69
2022/07/30 01:38:10;;;;;;;;;;;;;;;;;;5114685;28;1210;-70
2022/07/30 01:40:36;;;;;;;;;;;;;;;;;;5101585;28;1211;-69
2022/07/30 01:43:01;;;;;;;;;;;;;;;;;;5099373;28;1195;-69
2022/07/30 01:45:28;;;;;;;;;;;;;;;;;;5104565;28;1139;-69
2022/07/30 01:47:54;;;;;;;;;;;;;;;;;;5114429;28;836;-70
2022/07/30 01:50:20;;;;;;;;;;;;;;;;;;5113135;28;1901;-69
2022/07/30 01:52:47;;;;;;;;;;;;;;;;;;5113039;28;860;-69
2022/07/30 01:55:14;;;;;;;;;;;;;;;;;;5114419;28;833;-70
2022/07/30 01:57:40;;;;;;;;;;;;;;;;;;5114331;28;868;-70
2022/07/30 02:00:06;;;;;;;;;;;;;;;;;;5114637;28;782;-70
2022/07/30 02:02:33;;;;;;;;;;;;;;;;;;5113110;28;868;-70
2022/07/30 02:04:59;;;;;;;;;;;;;;;;;;5114186;28;1086;-69
2022/07/30 02:07:44;;;;;;;;;;;;;;;;;;5114407;28;833;-70
2022/07/30 02:10:11;;;;;;;;;;;;;;;;;;5114110;28;1906;-70
2022/07/30 02:12:41;;;;;;;;;;;;;;;;;;5114638;28;777;-70
2022/07/30 02:15:10;;;;;;;;;;;;;;;;;;5113000;28;1344;-69
2022/07/30 02:17:46;;;;;;;;;;;;;;;;;;5114051;28;832;-69
2022/07/30 02:20:13;;;;;;;;;;;;;;;;;;5112974;28;1189;-70
2022/07/30 02:22:46;;;;;;;;;;;;;;;;;;5114099;28;1013;-69
2022/07/30 02:25:14;;;;;;;;;;;;;;;;;;5112999;28;1150;-70
2022/07/30 02:27:42;;;;;;;;;;;;;;;;;;5114173;28;986;-69
2022/07/30 02:30:08;;;;;;;;;;;;;;;;;;5114497;28;923;-70
2022/07/30 02:32:35;;;;;;;;;;;;;;;;;;5114006;28;1902;-70
2022/07/30 02:35:04;;;;;;;;;;;;;;;;;;5114243;28;1060;-69
2022/07/30 02:37:30;;;;;;;;;;;;;;;;;;5113251;28;847;-69
2022/07/30 02:39:55;;;;;;;;;;;;;;;;;;5113041;28;828;-69
2022/07/30 02:42:23;;;;;;;;;;;;;;;;;;5113966;28;817;-69
2022/07/30 02:44:49;;;;;;;;;;;;;;;;;;5113927;28;965;-69
2022/07/30 02:47:15;;;;;;;;;;;;;;;;;;5113027;28;1145;-69
2022/07/30 02:49:41;;;;;;;;;;;;;;;;;;5112858;28;972;-69
2022/07/30 02:52:11;;;;;;;;;;;;;;;;;;5114539;28;2149;-69
2022/07/30 02:54:38;;;;;;;;;;;;;;;;;;5112789;28;1373;-69
2022/07/30 02:57:05;;;;;;;;;;;;;;;;;;5114804;28;817;-69
2022/07/30 02:59:31;;;;;;;;;;;;;;;;;;5113691;28;833;-68
2022/07/30 03:01:59;;;;;;;;;;;;;;;;;;5113630;28;923;-69
2022/07/30 03:04:26;;;;;;;;;;;;;;;;;;5113818;28;959;-69
2022/07/30 03:06:53;;;;;;;;;;;;;;;;;;5113316;28;926;-69
2022/07/30 03:09:20;;;;;;;;;;;;;;;;;;5111300;28;1176;-69
2022/07/30 03:11:46;;;;;;;;;;;;;;;;;;5112840;28;1890;-69
2022/07/30 03:14:11;;;;;;;;;;;;;;;;;;5095227;28;1293;-69
2022/07/30 03:16:37;;;;;;;;;;;;;;;;;;5111256;28;1296;-70
2022/07/30 03:19:05;;;;;;;;;;;;;;;;;;5111628;28;1176;-69
2022/07/30 03:21:32;;;;;;;;;;;;;;;;;;5113218;28;935;-69
2022/07/30 03:23:59;;;;;;;;;;;;;;;;;;5112841;28;1010;-69
2022/07/30 03:26:25;;;;;;;;;;;;;;;;;;5112926;28;955;-69
2022/07/30 03:28:52;;;;;;;;;;;;;;;;;;5112698;28;903;-69
2022/07/30 03:31:17;;;;;;;;;;;;;;;;;;5111543;28;1909;-68
2022/07/30 03:33:43;;;;;;;;;;;;;;;;;;5112771;28;817;-69
2022/07/30 03:36:11;;;;;;;;;;;;;;;;;;5113574;28;911;-69
2022/07/30 03:38:38;;;;;;;;;;;;;;;;;;5112647;28;928;-68
2022/07/30 03:41:03;;;;;;;;;;;;;;;;;;5112772;28;907;-68
2022/07/30 03:43:29;;;;;;;;;;;;;;;;;;5112661;28;931;-69
2022/07/30 03:45:56;;;;;;;;;;;;;;;;;;5111208;28;865;-68
2022/07/30 03:48:22;;;;;;;;;;;;;;;;;;5111995;28;888;-68
2022/07/30 03:50:48;;;;;;;;;;;;;;;;;;5111111;28;1913;-68
2022/07/30 03:53:13;;;;;;;;;;;;;;;;;;5111373;28;1209;-69
2022/07/30 03:55:39;;;;;;;;;;;;;;;;;;5110858;28;1119;-68
2022/07/30 03:58:05;;;;;;;;;;;;;;;;;;5094270;28;1440;-68
2022/07/30 04:00:31;;;;;;;;;;;;;;;;;;5110930;28;1210;-69
2022/07/30 04:02:56;;;;;;;;;;;;;;;;;;5112100;28;982;-69
2022/07/30 04:05:21;;;;;;;;;;;;;;;;;;5093783;28;1287;-69
2022/07/30 04:07:46;;;;;;;;;;;;;;;;;;5111577;28;837;-68
2022/07/30 04:10:13;;;;;;;;;;;;;;;;;;5112308;28;1073;-69
2022/07/30 04:12:38;;;;;;;;;;;;;;;;;;5111974;28;930;-69
2022/07/30 04:15:04;;;;;;;;;;;;;;;;;;5110937;28;1114;-69
2022/07/30 04:17:41;;;;;;;;;;;;;;;;;;5110943;28;864;-69
2022/07/30 04:20:11;;;;;;;;;;;;;;;;;;5113315;28;998;-69
2022/07/30 04:22:37;;;;;;;;;;;;;;;;;;5112434;28;959;-69
2022/07/30 04:25:05;;;;;;;;;;;;;;;;;;5111450;28;1319;-69
2022/07/30 04:27:30;;;;;;;;;;;;;;;;;;5112888;28;919;-69
2022/07/30 04:29:55;;;;;;;;;;;;;;;;;;5111459;28;1099;-69
2022/07/30 04:32:21;;;;;;;;;;;;;;;;;;5111592;28;1968;-69
2022/07/30 04:34:46;;;;;;;;;;;;;;;;;;5111677;28;917;-69
2022/07/30 04:37:13;;;;;;;;;;;;;;;;;;5112901;28;879;-69
2022/07/30 04:39:39;;;;;;;;;;;;;;;;;;5111209;28;1138;-68
2022/07/30 04:42:04;;;;;;;;;;;;;;;;;;5111528;28;825;-69
2022/07/30 04:44:29;;;;;;;;;;;;;;;;;;5112114;28;903;-69
2022/07/30 04:46:54;;;;;;;;;;;;;;;;;;5110883;28;860;-69
2022/07/30 04:49:21;;;;;;;;;;;;;;;;;;5112661;28;923;-68
2022/07/30 04:51:47;;;;;;;;;;;;;;;;;;5110572;28;2013;-69
2022/07/30 04:54:13;;;;;;;;;;;;;;;;;;5112771;28;844;-69
2022/07/30 04:56:39;;;;;;;;;;;;;;;;;;5110954;28;1350;-69
2022/07/30 04:59:05;;;;;;;;;;;;;;;;;;5112334;28;1065;-68
2022/07/30 05:01:33;;;;;;;;;;;;;;;;;;5114237;28;1242;-69
2022/07/30 05:04:00;;;;;;;;;;;;;;;;;;5116073;28;856;-69
2022/07/30 05:06:26;;;;;;;;;;;;;;;;;;5116376;28;1032;-69
2022/07/30 05:08:51;;;;;;;;;;;;;;;;;;5115197;28;1353;-69
2022/07/30 05:11:16;;;;;;;;;;;;;;;;;;5114344;28;1902;-69
2022/07/30 05:13:43;;;;;;;;;;;;;;;;;;5115356;28;900;-69
2022/07/30 05:16:08;;;;;;;;;;;;;;;;;;5115963;28;900;-70
2022/07/30 05:18:34;;;;;;;;;;;;;;;;;;5115306;28;864;-70
2022/07/30 05:20:59;;;;;;;;;;;;;;;;;;5114045;28;837;-70
2022/07/30 05:23:24;;;;;;;;;;;;;;;;;;5115892;28;821;-69
2022/07/30 05:25:49;;;;;;;;;;;;;;;;;;5113683;28;899;-69
2022/07/30 05:28:15;;;;;;;;;;;;;;;;;;5114079;28;1245;-69
2022/07/30 05:30:40;;;;;;;;;;;;;;;;;;5114643;28;1969;-69
2022/07/30 05:33:05;;;;;;;;;;;;;;;;;;5114209;28;829;-69
2022/07/30 05:35:30;;;;;;;;;;;;;;;;;;5114105;28;884;-69
2022/07/30 05:37:56;;;;;;;;;;;;;;;;;;5114815;28;951;-70
2022/07/30 05:40:21;;;;;;;;;;;;;;;;;;5114203;28;932;-70
2022/07/30 05:42:46;;;;;;;;;;;;;;;;;;5114314;28;900;-70
2022/07/30 05:45:11;;;;;;;;;;;;;;;;;;5115117;28;813;-69
2022/07/30 05:47:37;;;;;;;;;;;;;;;;;;5113277;28;1251;-69
2022/07/30 05:50:02;;;;;;;;;;;;;;;;;;5113425;28;1244;-70
2022/07/30 05:52:27;;;;;;;;;;;;;;;;;;5114898;28;1910;-69
2022/07/30 05:54:53;;;;;;;;;;;;;;;;;;5113292;28;834;-69
2022/07/30 05:57:18;;;;;;;;;;;;;;;;;;5115199;28;1121;-69
2022/07/30 05:59:45;;;;;;;;;;;;;;;;;;5114827;28;852;-69
2022/07/30 06:02:10;;;;;;;;;;;;;;;;;;5115342;28;910;-70
2022/07/30 06:04:36;;;;;;;;;;;;;;;;;;5114764;28;899;-69
2022/07/30 06:07:01;;;;;;;;;;;;;;;;;;5113770;28;840;-70
2022/07/30 06:09:27;;;;;;;;;;;;;;;;;;5096579;28;1398;-70
2022/07/30 06:11:52;;;;;;;;;;;;;;;;;;5114352;28;1918;-70
2022/07/30 06:14:18;;;;;;;;;;;;;;;;;;5113823;28;1299;-70
2022/07/30 06:16:43;;;;;;;;;;;;;;;;;;5114807;28;844;-69
2022/07/30 06:19:08;;;;;;;;;;;;;;;;;;5114474;28;832;-69
2022/07/30 06:21:33;;;;;;;;;;;;;;;;;;5114578;28;1238;-70
2022/07/30 06:23:59;;;;;;;;;;;;;;;;;;5103105;28;1211;-69
2022/07/30 06:26:24;;;;;;;;;;;;;;;;;;5095922;28;1156;-69
2022/07/30 06:28:49;;;;;;;;;;;;;;;;;;5084374;28;1227;-69
2022/07/30 06:31:14;;;;;;;;;;;;;;;;;;5108211;28;1983;-70
2022/07/30 06:33:40;;;;;;;;;;;;;;;;;;5101181;28;1163;-69
2022/07/30 06:36:05;;;;;;;;;;;;;;;;;;5093979;28;1407;-69
2022/07/30 06:38:31;;;;;;;;;;;;;;;;;;5113983;28;1182;-69
2022/07/30 06:40:56;;;;;;;;;;;;;;;;;;5111842;28;1261;-69
2022/07/30 06:43:21;;;;;;;;;;;;;;;;;;5112392;28;1329;-69
2022/07/30 06:45:46;;;;;;;;;;;;;;;;;;5112217;28;1003;-70
2022/07/30 06:48:12;;;;;;;;;;;;;;;;;;5095153;28;1205;-69
2022/07/30 06:50:37;;;;;;;;;;;;;;;;;;5113489;28;1913;-69
2022/07/30 06:53:02;;;;;;;;;;;;;;;;;;5113661;28;887;-70
2022/07/30 06:55:28;;;;;;;;;;;;;;;;;;5112549;28;942;-70
2022/07/30 06:57:53;;;;;;;;;;;;;;;;;;5111844;28;1142;-69
2022/07/30 07:00:19;;;;;;;;;;;;;;;;;;5112245;28;934;-70
2022/07/30 07:02:44;;;;;;;;;;;;;;;;;;5114518;27;837;-69
2022/07/30 07:05:10;;;;;;;;;;;;;;;;;;5118510;28;1002;-69
2022/07/30 07:07:36;;;;;;;;;;;;;;;;;;5118740;28;844;-69
2022/07/30 07:10:02;;;;;;;;;;;;;;;;;;5116612;28;1310;-69
2022/07/30 07:12:27;;;;;;;;;;;;;;;;;;5116503;28;1902;-69
2022/07/30 07:14:53;;;;;;;;;;;;;;;;;;5116444;28;924;-70
2022/07/30 07:17:18;;;;;;;;;;;;;;;;;;5101148;28;1182;-70
2022/07/30 07:19:43;;;;;;;;;;;;;;;;;;5095714;28;813;-71
2022/07/30 07:22:09;;;;;;;;;;;;;;;;;;5096677;28;1006;-70
2022/07/30 07:24:34;;;;;;;;;;;;;;;;;;5095067;28;1006;-70
2022/07/30 07:26:59;;;;;;;;;;;;;;;;;;5094905;28;1054;-70
2022/07/30 07:29:24;;;;;;;;;;;;;;;;;;5094357;28;1229;-70
2022/07/30 07:31:50;;;;;;;;;;;;;;;;;;5095021;28;1898;-70
2022/07/30 07:34:15;;;;;;;;;;;;;;;;;;5095763;28;955;-71
2022/07/30 07:36:40;;;;;;;;;;;;;;;;;;5095134;28;844;-71
2022/07/30 07:39:08;;;;;;;;;;;;;;;;;;5092334;28;895;-71
2022/07/30 07:41:34;;;;;;;;;;;;;;;;;;5093662;28;861;-71
2022/07/30 07:43:59;;;;;;;;;;;;;;;;;;5092369;28;962;-71
2022/07/30 07:46:24;;;;;;;;;;;;;;;;;;5093678;28;931;-70
2022/07/30 07:48:50;;;;;;;;;;;;;;;;;;5092962;28;935;-71
2022/07/30 07:51:15;;;;;;;;;;;;;;;;;;5075335;28;1910;-71
2022/07/30 07:53:40;;;;;;;;;;;;;;;;;;5093094;28;1063;-70
2022/07/30 07:56:07;;;;;;;;;;;;;;;;;;5093235;28;808;-70
2022/07/30 07:58:32;;;;;;;;;;;;;;;;;;5092883;28;851;-71
2022/07/30 08:00:57;;;;;;;;;;;;;;;;;;5093340;28;1082;-71
2022/07/30 08:03:23;;;;;;;;;;;;;;;;;;5093145;28;869;-70
2022/07/30 08:05:48;;;;;;;;;;;;;;;;;;5092235;28;958;-70
2022/07/30 08:08:13;;;;;;;;;;;;;;;;;;5091168;28;899;-71
2022/07/30 08:10:39;;;;;;;;;;;;;;;;;;5092361;28;2358;-70
2022/07/30 08:13:04;;;;;;;;;;;;;;;;;;5091873;28;848;-71
2022/07/30 08:15:30;;;;;;;;;;;;;;;;;;5092328;28;884;-69
2022/07/30 08:17:55;;;;;;;;;;;;;;;;;;5090956;28;836;-69
2022/07/30 08:20:21;;;;;;;;;;;;;;;;;;5091953;28;1007;-69
2022/07/30 08:22:47;;;;;;;;;;;;;;;;;;5091553;28;828;-70
2022/07/30 08:25:12;;;;;;;;;;;;;;;;;;5090600;28;1331;-69
2022/07/30 08:27:37;;;;;;;;;;;;;;;;;;5092157;28;832;-70
2022/07/30 08:30:07;;;;;;;;;;;;;;;;;;5089941;28;1095;-70
2022/07/30 08:32:32;;;;;;;;;;;;;;;;;;5090431;28;1886;-69
2022/07/30 08:34:58;;;;;;;;;;;;;;;;;;5092545;28;1557;-69
2022/07/30 08:37:23;;;;;;;;;;;;;;;;;;5095902;28;1662;-69
2022/07/30 08:39:48;;;;;;;;;;;;;;;;;;5096228;28;1140;-69
2022/07/30 08:42:15;;;;;;;;;;;;;;;;;;5093227;28;891;-70
2022/07/30 08:44:43;;;;;;;;;;;;;;;;;;5095412;28;860;-69
2022/07/30 08:47:08;;;;;;;;;;;;;;;;;;5094283;28;1233;-71
2022/07/30 08:49:34;;;;;;;;;;;;;;;;;;5094071;28;1261;-69
2022/07/30 08:52:00;;;;;;;;;;;;;;;;;;5095506;28;1967;-69
2022/07/30 08:54:25;;;;;;;;;;;;;;;;;;5094528;28;1115;-68
2022/07/30 08:56:51;;;;;;;;;;;;;;;;;;5077044;28;1471;-69
2022/07/30 08:59:16;;;;;;;;;;;;;;;;;;5094245;28;919;-69
2022/07/30 09:01:42;;;;;;;;;;;;;;;;;;5093694;28;1373;-69
2022/07/30 09:04:07;;;;;;;;;;;;;;;;;;5095713;28;824;-70
2022/07/30 09:06:32;;;;;;;;;;;;;;;;;;5095985;28;1402;-69
2022/07/30 09:08:57;;;;;;;;;;;;;;;;;;5095687;28;856;-70
2022/07/30 09:11:23;;;;;;;;;;;;;;;;;;5094293;28;1973;-69
2022/07/30 09:13:49;;;;;;;;;;;;;;;;;;5095090;28;892;-69
2022/07/30 09:16:18;;;;;;;;;;;;;;;;;;5095653;28;809;-69
2022/07/30 09:18:44;;;;;;;;;;;;;;;;;;5095875;28;833;-69
2022/07/30 09:21:38;;;;;;;;;;;;;;;;;;5094670;28;1033;-69
2022/07/30 09:24:04;;;;;;;;;;;;;;;;;;5081517;28;1357;-70
2022/07/30 09:26:31;;;;;;;;;;;;;;;;;;5096306;28;1132;-70
2022/07/30 09:29:16;;;;;;;;;;;;;;;;;;5107722;28;1190;-70
2022/07/30 09:32:01;;;;;;;;;;;;;;;;;;5102687;28;1957;-71
2022/07/30 09:34:28;;;;;;;;;;;;;;;;;;5103993;28;1152;-70
2022/07/30 09:36:54;;;;;;;;;;;;;;;;;;5103149;28;1223;-69
2022/07/30 09:39:31;;;;;;;;;;;;;;;;;;5108360;28;1124;-70
2022/07/30 09:41:57;;;;;;;;;;;;;;;;;;5102755;28;1152;-69
2022/07/30 09:44:26;;;;;;;;;;;;;;;;;;5105077;28;1313;-70
2022/07/30 09:46:52;;;;;;;;;;;;;;;;;;5095578;28;1206;-69
2022/07/30 09:49:27;;;;;;;;;;;;;;;;;;5093815;28;1276;-70
2022/07/30 09:51:54;;;;;;;;;;;;;;;;;;5104638;28;1897;-69
2022/07/30 09:54:19;;;;;;;;;;;;;;;;;;5092848;28;1307;-69
2022/07/30 09:56:45;;;;;;;;;;;;;;;;;;5094291;28;900;-70
2022/07/30 09:59:29;;;;;;;;;;;;;;;;;;5092961;28;828;-69
2022/07/30 10:01:55;;;;;;;;;;;;;;;;;;5092544;28;1264;-70
2022/07/30 10:04:23;;;;;;;;;;;;;;;;;;5094207;28;1023;-69
2022/07/30 10:06:49;;;;;;;;;;;;;;;;;;5094151;28;884;-69
2022/07/30 10:09:23;;;;;;;;;;;;;;;;;;5094183;28;1092;-68
2022/07/30 10:11:48;;;;;;;;;;;;;;;;;;5093907;28;1910;-69
2022/07/30 10:14:14;;;;;;;;;;;;;;;;;;5094211;28;939;-68
2022/07/30 10:16:39;;;;;;;;;;;;;;;;;;5092821;28;1348;-67
2022/07/30 10:19:05;;;;;;;;;;;;;;;;;;5092690;28;912;-68
2022/07/30 10:21:30;;;;;;;;;;;;;;;;;;5092651;28;895;-68
2022/07/30 10:23:55;;;;;;;;;;;;;;;;;;5093229;28;942;-68
2022/07/30 10:26:21;;;;;;;;;;;;;;;;;;5092503;28;1311;-69
2022/07/30 10:28:46;;;;;;;;;;;;;;;;;;5093326;28;845;-68
2022/07/30 10:31:12;;;;;;;;;;;;;;;;;;5093403;28;1972;-68
2022/07/30 10:33:37;;;;;;;;;;;;;;;;;;5092839;28;765;-69
2022/07/30 10:36:03;;;;;;;;;;;;;;;;;;5093528;28;919;-68
2022/07/30 10:38:31;;;;;;;;;;;;;;;;;;5093702;28;820;-69
2022/07/30 10:41:00;;;;;;;;;;;;;;;;;;5091874;28;1322;-69
2022/07/30 10:43:28;;;;;;;;;;;;;;;;;;5092348;28;1146;-68
2022/07/30 10:46:22;;;;;;;;;;;;;;;;;;5093397;28;1057;-70
2022/07/30 10:48:47;;;;;;;;;;;;;;;;;;5091633;28;868;-69
2022/07/30 10:51:13;;;;;;;;;;;;;;;;;;5091143;28;1968;-69
2022/07/30 10:53:39;;;;;;;;;;;;;;;;;;5093573;28;915;-70
2022/07/30 10:56:18;;;;;;;;;;;;;;;;;;5093617;28;836;-70
2022/07/30 10:59:00;;;;;;;;;;;;;;;;;;5091795;28;861;-70
2022/07/30 11:01:46;;;;;;;;;;;;;;;;;;5091531;28;1150;-70
2022/07/30 11:04:24;;;;;;;;;;;;;;;;;;5093720;28;1318;-69
2022/07/30 11:06:50;;;;;;;;;;;;;;;;;;5092212;28;1154;-70
2022/07/30 11:09:34;;;;;;;;;;;;;;;;;;5093873;28;1055;-69
2022/07/30 11:11:59;;;;;;;;;;;;;;;;;;5093266;28;1967;-70
2022/07/30 11:14:44;;;;;;;;;;;;;;;;;;5093684;28;1067;-70
2022/07/30 11:17:10;;;;;;;;;;;;;;;;;;5093566;28;1055;-70
2022/07/30 11:19:55;;;;;;;;;;;;;;;;;;5093195;28;836;-69
2022/07/30 11:22:25;;;;;;;;;;;;;;;;;;5091890;28;1325;-69
2022/07/30 11:24:50;;;;;;;;;;;;;;;;;;5092805;28;864;-70
2022/07/30 11:27:35;;;;;;;;;;;;;;;;;;5091213;28;1237;-71
2022/07/30 11:30:01;;;;;;;;;;;;;;;;;;5092708;28;923;-70
2022/07/30 11:32:26;;;;;;;;;;;;;;;;;;5092594;28;1956;-70
2022/07/30 11:35:09;;;;;;;;;;;;;;;;;;5090848;28;1242;-70
2022/07/30 11:37:56;;;;;;;;;;;;;;;;;;5092691;28;892;-70
2022/07/30 11:40:22;;;;;;;;;;;;;;;;;;5081716;28;1375;-70
2022/07/30 11:42:47;;;;;;;;;;;;;;;;;;5090574;28;1170;-69
2022/07/30 11:45:21;;;;;;;;;;;;;;;;;;5074463;28;1198;-70
2022/07/30 11:47:52;;;;;;;;;;;;;;;;;;5092386;28;856;-70
2022/07/30 11:50:22;;;;;;;;;;;;;;;;;;5092724;28;1078;-70
2022/07/30 11:52:58;;;;;;;;;;;;;;;;;;5091917;28;1910;-70
2022/07/30 11:55:24;;;;;;;;;;;;;;;;;;5091059;28;1340;-69
2022/07/30 11:57:50;;;;;;;;;;;;;;;;;;5092131;28;887;-69
2022/07/30 12:00:17;;;;;;;;;;;;;;;;;;5092582;28;914;-69
2022/07/30 12:02:43;;;;;;;;;;;;;;;;;;5092046;28;845;-70
2022/07/30 12:05:08;;;;;;;;;;;;;;;;;;5092906;28;933;-71
2022/07/30 12:07:34;;;;;;;;;;;;;;;;;;5091651;28;837;-70
2022/07/30 12:10:15;;;;;;;;;;;;;;;;;;5091875;28;1045;-70
2022/07/30 12:12:40;;;;;;;;;;;;;;;;;;5092139;28;1977;-70
2022/07/30 12:15:05;;;;;;;;;;;;;;;;;;5092207;28;844;-69
2022/07/30 12:17:41;;;;;;;;;;;;;;;;;;5090660;28;1244;-69
2022/07/30 12:20:14;;;;;;;;;;;;;;;;;;5092002;28;867;-70
2022/07/30 12:22:39;;;;;;;;;;;;;;;;;;5092126;28;927;-70
2022/07/30 12:25:08;;;;;;;;;;;;;;;;;;5090729;28;829;-70
2022/07/30 12:27:33;;;;;;;;;;;;;;;;;;5091623;28;917;-70
2022/07/30 12:29:59;;;;;;;;;;;;;;;;;;5091933;28;1010;-69
2022/07/30 12:32:24;;;;;;;;;;;;;;;;;;5090666;28;1902;-71
2022/07/30 12:34:54;;;;;;;;;;;;;;;;;;5090486;28;916;-71
2022/07/30 12:37:19;;;;;;;;;;;;;;;;;;5092064;28;908;-71
2022/07/30 12:39:45;;;;;;;;;;;;;;;;;;5091830;28;1002;-71
2022/07/30 12:42:19;;;;;;;;;;;;;;;;;;5092797;28;884;-71
2022/07/30 12:44:45;;;;;;;;;;;;;;;;;;5092289;28;943;-71
2022/07/30 12:47:29;;;;;;;;;;;;;;;;;;5092833;28;940;-71
2022/07/30 12:49:56;;;;;;;;;;;;;;;;;;5091760;28;813;-71
2022/07/30 12:52:25;;;;;;;;;;;;;;;;;;5092206;28;1966;-71
2022/07/30 12:54:58;;;;;;;;;;;;;;;;;;5091671;28;917;-71
2022/07/30 12:57:23;;;;;;;;;;;;;;;;;;5090707;28;1146;-71
2022/07/30 12:59:59;;;;;;;;;;;;;;;;;;5091347;28;987;-71
2022/07/30 13:02:35;;;;;;;;;;;;;;;;;;5091625;28;903;-71
2022/07/30 13:05:00;;;;;;;;;;;;;;;;;;5091323;28;914;-71
2022/07/30 13:07:28;;;;;;;;;;;;;;;;;;5090125;28;876;-71
2022/07/30 13:10:07;;;;;;;;;;;;;;;;;;5090973;28;1219;-71
2022/07/30 13:12:32;;;;;;;;;;;;;;;;;;5091635;28;1898;-71
2022/07/30 13:14:57;;;;;;;;;;;;;;;;;;5097031;28;1277;-71
2022/07/30 13:17:22;;;;;;;;;;;;;;;;;;5081465;28;1220;-71
2022/07/30 13:19:47;;;;;;;;;;;;;;;;;;5089617;28;1130;-71
2022/07/30 13:22:13;;;;;;;;;;;;;;;;;;5093438;28;1210;-71
2022/07/30 13:24:38;;;;;;;;;;;;;;;;;;5095332;28;868;-72
2022/07/30 13:27:03;;;;;;;;;;;;;;;;;;5093599;28;1399;-71
2022/07/30 13:29:29;;;;;;;;;;;;;;;;;;5095809;28;931;-71
2022/07/30 13:31:54;;;;;;;;;;;;;;;;;;5093439;28;1898;-71
2022/07/30 13:34:19;;;;;;;;;;;;;;;;;;5095436;28;833;-71
2022/07/30 13:36:44;;;;;;;;;;;;;;;;;;5093661;28;880;-71
2022/07/30 13:39:10;;;;;;;;;;;;;;;;;;5094304;28;887;-71
2022/07/30 13:41:36;;;;;;;;;;;;;;;;;;5094970;28;845;-71
2022/07/30 13:44:02;;;;;;;;;;;;;;;;;;5094965;28;812;-71
2022/07/30 13:46:27;;;;;;;;;;;;;;;;;;5094800;28;899;-70
2022/07/30 13:48:53;;;;;;;;;;;;;;;;;;5097876;28;1184;-70
2022/07/30 13:51:18;;;;;;;;;;;;;;;;;;5114085;28;1874;-71
2022/07/30 13:53:44;;;;;;;;;;;;;;;;;;5114968;28;904;-71
2022/07/30 13:56:09;;;;;;;;;;;;;;;;;;5115215;28;978;-71
2022/07/30 13:58:35;;;;;;;;;;;;;;;;;;5115311;27;885;-70
2022/07/30 14:01:00;;;;;;;;;;;;;;;;;;5113423;28;872;-71
2022/07/30 14:03:25;;;;;;;;;;;;;;;;;;5113735;28;1169;-71
2022/07/30 14:05:51;;;;;;;;;;;;;;;;;;5114959;28;932;-71
2022/07/30 14:08:16;;;;;;;;;;;;;;;;;;5115044;28;832;-71
2022/07/30 14:10:41;;;;;;;;;;;;;;;;;;5114357;28;1902;-70
2022/07/30 14:13:08;;;;;;;;;;;;;;;;;;5113914;28;1396;-70
2022/07/30 14:15:33;;;;;;;;;;;;;;;;;;5113783;28;1197;-71
2022/07/30 14:17:59;;;;;;;;;;;;;;;;;;5112876;28;911;-71
2022/07/30 14:20:25;;;;;;;;;;;;;;;;;;5115007;28;863;-71
2022/07/30 14:22:52;;;;;;;;;;;;;;;;;;5113906;28;959;-70
2022/07/30 14:25:17;;;;;;;;;;;;;;;;;;5115588;28;975;-71
2022/07/30 14:27:43;;;;;;;;;;;;;;;;;;5113892;28;1385;-71
2022/07/30 14:30:08;;;;;;;;;;;;;;;;;;5113889;28;1146;-71
2022/07/30 14:32:34;;;;;;;;;;;;;;;;;;5114700;28;1909;-71
2022/07/30 14:34:59;;;;;;;;;;;;;;;;;;5114756;28;939;-71
2022/07/30 14:37:25;;;;;;;;;;;;;;;;;;5115135;28;944;-70
2022/07/30 14:39:50;;;;;;;;;;;;;;;;;;5114499;28;940;-71
2022/07/30 14:42:15;;;;;;;;;;;;;;;;;;5114945;28;1054;-71
2022/07/30 14:44:41;;;;;;;;;;;;;;;;;;5113591;28;832;-71
2022/07/30 14:47:07;;;;;;;;;;;;;;;;;;5095962;28;997;-71
2022/07/30 14:49:32;;;;;;;;;;;;;;;;;;5113855;28;1192;-71
2022/07/30 14:51:57;;;;;;;;;;;;;;;;;;5114186;28;1882;-71
2022/07/30 14:54:23;;;;;;;;;;;;;;;;;;5113046;28;860;-71
2022/07/30 14:56:48;;;;;;;;;;;;;;;;;;5113426;28;911;-71
2022/07/30 14:59:13;;;;;;;;;;;;;;;;;;5113766;28;812;-72
2022/07/30 15:01:40;;;;;;;;;;;;;;;;;;5113727;28;967;-71
2022/07/30 15:04:08;;;;;;;;;;;;;;;;;;5112292;28;853;-69
2022/07/30 15:06:33;;;;;;;;;;;;;;;;;;5112583;28;973;-68
2022/07/30 15:08:58;;;;;;;;;;;;;;;;;;5112360;28;785;-70
2022/07/30 15:11:24;;;;;;;;;;;;;;;;;;5113143;28;1987;-69
2022/07/30 15:13:49;;;;;;;;;;;;;;;;;;5112883;28;923;-69
2022/07/30 15:16:14;;;;;;;;;;;;;;;;;;5111376;28;1249;-69
2022/07/30 15:18:39;;;;;;;;;;;;;;;;;;5112876;28;982;-69
2022/07/30 15:21:05;;;;;;;;;;;;;;;;;;5111254;28;1138;-69
2022/07/30 15:23:30;;;;;;;;;;;;;;;;;;5111329;28;891;-70
2022/07/30 15:25:55;;;;;;;;;;;;;;;;;;5112441;28;880;-70
2022/07/30 15:28:22;;;;;;;;;;;;;;;;;;5111561;28;891;-69
2022/07/30 15:30:47;;;;;;;;;;;;;;;;;;5111070;28;1969;-70
2022/07/30 15:33:13;;;;;;;;;;;;;;;;;;5111266;28;1219;-69
2022/07/30 15:35:38;;;;;;;;;;;;;;;;;;5112689;28;900;-68
2022/07/30 15:38:03;;;;;;;;;;;;;;;;;;5093990;28;1251;-69
2022/07/30 15:40:28;;;;;;;;;;;;;;;;;;5111324;28;1178;-69
2022/07/30 15:42:54;;;;;;;;;;;;;;;;;;5112342;28;985;-68
2022/07/30 15:45:19;;;;;;;;;;;;;;;;;;5112492;28;971;-70
2022/07/30 15:47:45;;;;;;;;;;;;;;;;;;5111098;28;865;-69
2022/07/30 15:50:10;;;;;;;;;;;;;;;;;;5113294;28;907;-69
2022/07/30 15:52:35;;;;;;;;;;;;;;;;;;5094872;28;1902;-69
2022/07/30 15:55:04;;;;;;;;;;;;;;;;;;5111019;28;1338;-69
2022/07/30 15:57:30;;;;;;;;;;;;;;;;;;5112957;28;1091;-69
2022/07/30 15:59:55;;;;;;;;;;;;;;;;;;5112753;28;1031;-69
2022/07/30 16:02:21;;;;;;;;;;;;;;;;;;5111784;28;915;-70
2022/07/30 16:04:46;;;;;;;;;;;;;;;;;;5111152;28;895;-70
2022/07/30 16:07:11;;;;;;;;;;;;;;;;;;5111610;28;911;-69
2022/07/30 16:09:37;;;;;;;;;;;;;;;;;;5112961;28;1244;-70
2022/07/30 16:12:03;;;;;;;;;;;;;;;;;;5112993;28;1905;-70
2022/07/30 16:14:28;;;;;;;;;;;;;;;;;;5111283;28;1213;-70
2022/07/30 16:16:54;;;;;;;;;;;;;;;;;;5110870;28;904;-69
2022/07/30 16:19:19;;;;;;;;;;;;;;;;;;5112044;28;982;-69
2022/07/30 16:21:44;;;;;;;;;;;;;;;;;;5110632;28;865;-69
2022/07/30 16:24:09;;;;;;;;;;;;;;;;;;5112341;28;812;-69
2022/07/30 16:26:36;;;;;;;;;;;;;;;;;;5110521;28;1138;-69
2022/07/30 16:29:02;;;;;;;;;;;;;;;;;;5112004;28;911;-69
2022/07/30 16:31:27;;;;;;;;;;;;;;;;;;5110698;28;1907;-69
2022/07/30 16:33:52;;;;;;;;;;;;;;;;;;5111833;28;844;-69
2022/07/30 16:36:18;;;;;;;;;;;;;;;;;;5111943;28;864;-70
2022/07/30 16:38:43;;;;;;;;;;;;;;;;;;5093706;28;1149;-69
2022/07/30 16:41:10;;;;;;;;;;;;;;;;;;5111933;28;1042;-68
2022/07/30 16:43:35;;;;;;;;;;;;;;;;;;5110564;28;1157;-70
2022/07/30 16:46:00;;;;;;;;;;;;;;;;;;5109885;28;825;-70
2022/07/30 16:48:26;;;;;;;;;;;;;;;;;;5110406;28;832;-69
2022/07/30 16:50:51;;;;;;;;;;;;;;;;;;5111440;28;1905;-69
2022/07/30 16:53:16;;;;;;;;;;;;;;;;;;5111988;28;876;-70
2022/07/30 16:55:43;;;;;;;;;;;;;;;;;;5112423;28;805;-70
2022/07/30 16:58:08;;;;;;;;;;;;;;;;;;5115118;28;935;-69
2022/07/30 17:00:34;;;;;;;;;;;;;;;;;;5115871;28;832;-69
2022/07/30 17:02:59;;;;;;;;;;;;;;;;;;5115167;28;986;-69
2022/07/30 17:05:24;;;;;;;;;;;;;;;;;;5114338;28;963;-69
2022/07/30 17:07:50;;;;;;;;;;;;;;;;;;5114091;28;1142;-69
2022/07/30 17:10:15;;;;;;;;;;;;;;;;;;5113719;28;1205;-69